sensor_id;sensor_type;location;lat;lon;timestamp;pressure;altitude;pressure_sealevel;temperature;humidity
22662;BME280;11497;52.222;21.246;2024-02-21T00:00:18;100801.19;;;4.02;83.14
22662;BME280;11497;52.222;21.246;2024-02-21T00:03:07;100811.22;;;3.98;83.49
22662;BME280;11497;52.222;21.246;2024-02-21T00:05:35;100809.91;;;4.09;82.82
22662;BME280;11497;52.222;21.246;2024-02-21T00:08:03;100804.75;;;4.06;82.37
22662;BME280;11497;52.222;21.246;2024-02-21T00:10:31;100807.31;;;4.07;82.45
22662;BME280;11497;52.222;21.246;2024-02-21T00:13:03;100818.88;;;3.98;82.74
22662;BME280;11497;52.222;21.246;2024-02-21T00:15:31;100806.47;;;3.84;83.07
22662;BME280;11497;52.222;21.246;2024-02-21T00:17:59;100807.34;;;3.85;83.20
22662;BME280;11497;52.222;21.246;2024-02-21T00:20:27;100803.88;;;3.83;83.38
22662;BME280;11497;52.222;21.246;2024-02-21T00:22:55;100802.94;;;3.81;83.31
22662;BME280;11497;52.222;21.246;2024-02-21T00:25:22;100809.16;;;3.87;83.26
22662;BME280;11497;52.222;21.246;2024-02-21T00:27:50;100798.03;;;3.85;83.42
22662;BME280;11497;52.222;21.246;2024-02-21T00:30:18;100803.34;;;3.91;83.78
22662;BME280;11497;52.222;21.246;2024-02-21T00:32:46;100808.44;;;3.91;83.32
22662;BME280;11497;52.222;21.246;2024-02-21T00:35:14;100807.75;;;3.96;83.97
22662;BME280;11497;52.222;21.246;2024-02-21T00:37:42;100805.22;;;3.96;83.57
22662;BME280;11497;52.222;21.246;2024-02-21T00:40:10;100801.91;;;3.98;83.78
22662;BME280;11497;52.222;21.246;2024-02-21T00:42:38;100804.50;;;4.00;84.33
22662;BME280;11497;52.222;21.246;2024-02-21T00:45:07;100806.28;;;4.02;83.64
22662;BME280;11497;52.222;21.246;2024-02-21T00:47:35;100793.91;;;4.11;83.54
22662;BME280;11497;52.222;21.246;2024-02-21T00:50:03;100795.53;;;4.09;84.00
22662;BME280;11497;52.222;21.246;2024-02-21T00:52:36;100786.25;;;4.11;84.13
22662;BME280;11497;52.222;21.246;2024-02-21T00:55:05;100785.38;;;4.11;83.94
22662;BME280;11497;52.222;21.246;2024-02-21T00:57:33;100781.03;;;4.08;84.22
22662;BME280;11497;52.222;21.246;2024-02-21T01:00:01;100777.56;;;4.06;84.10
22662;BME280;11497;52.222;21.246;2024-02-21T01:02:30;100770.66;;;4.04;84.26
22662;BME280;11497;52.222;21.246;2024-02-21T01:05:01;100786.72;;;4.01;84.51
22662;BME280;11497;52.222;21.246;2024-02-21T01:07:29;100782.31;;;3.97;84.68
22662;BME280;11497;52.222;21.246;2024-02-21T01:09:57;100771.56;;;4.04;84.71
22662;BME280;11497;52.222;21.246;2024-02-21T01:12:25;100777.22;;;3.97;84.79
22662;BME280;11497;52.222;21.246;2024-02-21T01:14:53;100781.47;;;3.97;85.08
22662;BME280;11497;52.222;21.246;2024-02-21T01:17:21;100768.06;;;4.02;84.64
22662;BME280;11497;52.222;21.246;2024-02-21T01:19:49;100768.97;;;4.03;84.38
22662;BME280;11497;52.222;21.246;2024-02-21T01:22:17;100765.50;;;4.01;84.61
22662;BME280;11497;52.222;21.246;2024-02-21T01:24:45;100764.59;;;4.00;85.13
22662;BME280;11497;52.222;21.246;2024-02-21T01:27:13;100764.53;;;3.99;85.01
22662;BME280;11497;52.222;21.246;2024-02-21T01:29:41;100763.63;;;3.97;85.18
22662;BME280;11497;52.222;21.246;2024-02-21T01:32:09;100755.06;;;3.94;85.00
22662;BME280;11497;52.222;21.246;2024-02-21T01:34:37;100757.63;;;3.94;84.97
22662;BME280;11497;52.222;21.246;2024-02-21T01:37:05;100761.69;;;3.89;84.96
22662;BME280;11497;52.222;21.246;2024-02-21T01:39:34;100756.75;;;3.94;85.32
22662;BME280;11497;52.222;21.246;2024-02-21T01:42:03;100757.50;;;3.91;85.08
22662;BME280;11497;52.222;21.246;2024-02-21T01:44:32;100749.84;;;3.91;85.70
22662;BME280;11497;52.222;21.246;2024-02-21T01:47:00;100747.44;;;3.94;85.48
22662;BME280;11497;52.222;21.246;2024-02-21T01:49:29;100745.00;;;3.98;85.32
22662;BME280;11497;52.222;21.246;2024-02-21T01:51:57;100750.88;;;3.97;85.39
22662;BME280;11497;52.222;21.246;2024-02-21T01:54:26;100750.22;;;4.01;85.42
22662;BME280;11497;52.222;21.246;2024-02-21T01:56:56;100749.38;;;4.02;85.58
22662;BME280;11497;52.222;21.246;2024-02-21T01:59:24;100752.03;;;4.05;85.47
22662;BME280;11497;52.222;21.246;2024-02-21T02:01:53;100755.44;;;4.05;85.84
22662;BME280;11497;52.222;21.246;2024-02-21T02:04:23;100759.13;;;4.13;85.42
22662;BME280;11497;52.222;21.246;2024-02-21T02:06:54;100752.59;;;4.20;85.61
22662;BME280;11497;52.222;21.246;2024-02-21T02:09:22;100748.22;;;4.18;85.53
22662;BME280;11497;52.222;21.246;2024-02-21T02:11:51;100749.25;;;4.23;85.18
22662;BME280;11497;52.222;21.246;2024-02-21T02:14:19;100750.09;;;4.22;85.47
22662;BME280;11497;52.222;21.246;2024-02-21T02:16:47;100749.22;;;4.21;85.43
22662;BME280;11497;52.222;21.246;2024-02-21T02:19:15;100744.16;;;4.23;85.79
22662;BME280;11497;52.222;21.246;2024-02-21T02:21:49;100738.25;;;4.24;85.67
22662;BME280;11497;52.222;21.246;2024-02-21T02:24:24;100738.31;;;4.25;86.03
22662;BME280;11497;52.222;21.246;2024-02-21T02:26:55;100737.53;;;4.28;86.12
22662;BME280;11497;52.222;21.246;2024-02-21T02:29:23;100739.22;;;4.27;86.19
22662;BME280;11497;52.222;21.246;2024-02-21T02:31:51;100735.16;;;4.32;85.63
22662;BME280;11497;52.222;21.246;2024-02-21T02:34:19;100734.97;;;4.26;85.97
22662;BME280;11497;52.222;21.246;2024-02-21T02:36:47;100731.59;;;4.27;86.21
22662;BME280;11497;52.222;21.246;2024-02-21T02:39:16;100734.19;;;4.29;86.11
22662;BME280;11497;52.222;21.246;2024-02-21T02:41:45;100736.69;;;4.27;86.57
22662;BME280;11497;52.222;21.246;2024-02-21T02:44:12;100732.41;;;4.26;86.61
22662;BME280;11497;52.222;21.246;2024-02-21T02:46:41;100732.44;;;4.28;86.22
22662;BME280;11497;52.222;21.246;2024-02-21T02:49:09;100726.53;;;4.29;86.64
22662;BME280;11497;52.222;21.246;2024-02-21T02:51:41;100734.19;;;4.29;86.56
22662;BME280;11497;52.222;21.246;2024-02-21T02:54:08;100730.84;;;4.30;86.64
22662;BME280;11497;52.222;21.246;2024-02-21T02:56:36;100724.91;;;4.31;87.27
22662;BME280;11497;52.222;21.246;2024-02-21T02:59:04;100733.47;;;4.33;87.09
22662;BME280;11497;52.222;21.246;2024-02-21T03:01:34;100736.25;;;4.39;86.91
22662;BME280;11497;52.222;21.246;2024-02-21T03:04:03;100729.38;;;4.37;87.02
22662;BME280;11497;52.222;21.246;2024-02-21T03:06:31;100730.19;;;4.36;87.11
22662;BME280;11497;52.222;21.246;2024-02-21T03:08:59;100737.81;;;4.36;86.92
22662;BME280;11497;52.222;21.246;2024-02-21T03:11:28;100736.41;;;4.44;87.12
22662;BME280;11497;52.222;21.246;2024-02-21T03:13:57;100732.06;;;4.41;86.99
22662;BME280;11497;52.222;21.246;2024-02-21T03:16:26;100730.97;;;4.35;87.56
22662;BME280;11497;52.222;21.246;2024-02-21T03:18:53;100735.94;;;4.30;87.46
22662;BME280;11497;52.222;21.246;2024-02-21T03:21:22;100729.81;;;4.25;87.66
22662;BME280;11497;52.222;21.246;2024-02-21T03:23:49;100729.03;;;4.27;87.70
22662;BME280;11497;52.222;21.246;2024-02-21T03:26:17;100730.69;;;4.25;88.06
22662;BME280;11497;52.222;21.246;2024-02-21T03:28:45;100736.63;;;4.26;87.83
22662;BME280;11497;52.222;21.246;2024-02-21T03:31:14;100738.50;;;4.30;87.70
22662;BME280;11497;52.222;21.246;2024-02-21T03:33:43;100733.28;;;4.27;87.98
22662;BME280;11497;52.222;21.246;2024-02-21T03:36:15;100734.13;;;4.27;88.10
22662;BME280;11497;52.222;21.246;2024-02-21T03:38:43;100732.56;;;4.31;88.06
22662;BME280;11497;52.222;21.246;2024-02-21T03:41:11;100729.94;;;4.29;88.06
22662;BME280;11497;52.222;21.246;2024-02-21T03:43:39;100724.56;;;4.20;88.11
22662;BME280;11497;52.222;21.246;2024-02-21T03:46:08;100725.28;;;4.16;88.36
22662;BME280;11497;52.222;21.246;2024-02-21T03:48:36;100729.28;;;4.09;88.18
22662;BME280;11497;52.222;21.246;2024-02-21T03:51:04;100728.81;;;3.97;88.38
22662;BME280;11497;52.222;21.246;2024-02-21T03:53:32;100728.50;;;3.88;88.54
22662;BME280;11497;52.222;21.246;2024-02-21T03:56:04;100725.63;;;3.79;88.71
22662;BME280;11497;52.222;21.246;2024-02-21T03:58:32;100721.81;;;3.67;88.86
22662;BME280;11497;52.222;21.246;2024-02-21T04:01:01;100723.13;;;3.56;89.09
22662;BME280;11497;52.222;21.246;2024-02-21T04:03:31;100721.66;;;3.40;89.01
22662;BME280;11497;52.222;21.246;2024-02-21T04:05:59;100730.44;;;3.26;89.13
22662;BME280;11497;52.222;21.246;2024-02-21T04:08:28;100723.03;;;3.09;89.36
22662;BME280;11497;52.222;21.246;2024-02-21T04:10:56;100725.78;;;2.93;89.47
22662;BME280;11497;52.222;21.246;2024-02-21T04:13:23;100731.44;;;2.86;89.71
22662;BME280;11497;52.222;21.246;2024-02-21T04:15:52;100730.38;;;2.80;89.92
22662;BME280;11497;52.222;21.246;2024-02-21T04:18:20;100714.63;;;2.68;89.84
22662;BME280;11497;52.222;21.246;2024-02-21T04:20:48;100723.56;;;2.58;90.28
22662;BME280;11497;52.222;21.246;2024-02-21T04:23:16;100722.31;;;2.49;90.07
22662;BME280;11497;52.222;21.246;2024-02-21T04:25:44;100718.03;;;2.48;90.36
22662;BME280;11497;52.222;21.246;2024-02-21T04:28:11;100716.38;;;2.48;90.86
22662;BME280;11497;52.222;21.246;2024-02-21T04:30:40;100713.63;;;2.43;90.64
22662;BME280;11497;52.222;21.246;2024-02-21T04:33:08;100716.72;;;2.36;90.85
22662;BME280;11497;52.222;21.246;2024-02-21T04:35:37;100713.97;;;2.32;91.11
22662;BME280;11497;52.222;21.246;2024-02-21T04:38:05;100709.22;;;2.39;90.93
22662;BME280;11497;52.222;21.246;2024-02-21T04:40:34;100711.34;;;2.50;91.66
22662;BME280;11497;52.222;21.246;2024-02-21T04:43:02;100709.31;;;2.62;91.47
22662;BME280;11497;52.222;21.246;2024-02-21T04:45:30;100716.63;;;2.75;91.81
22662;BME280;11497;52.222;21.246;2024-02-21T04:47:58;100711.91;;;2.85;92.00
22662;BME280;11497;52.222;21.246;2024-02-21T04:50:26;100718.09;;;2.91;92.14
22662;BME280;11497;52.222;21.246;2024-02-21T04:52:55;100716.59;;;2.96;92.22
22662;BME280;11497;52.222;21.246;2024-02-21T04:55:23;100708.41;;;3.04;92.18
22662;BME280;11497;52.222;21.246;2024-02-21T04:57:51;100710.31;;;3.09;92.04
22662;BME280;11497;52.222;21.246;2024-02-21T05:00:20;100710.50;;;3.14;92.08
22662;BME280;11497;52.222;21.246;2024-02-21T05:02:48;100719.09;;;3.17;92.07
22662;BME280;11497;52.222;21.246;2024-02-21T05:05:16;100715.91;;;3.22;92.20
22662;BME280;11497;52.222;21.246;2024-02-21T05:07:44;100712.72;;;3.27;91.99
22662;BME280;11497;52.222;21.246;2024-02-21T05:10:13;100711.09;;;3.29;91.91
22662;BME280;11497;52.222;21.246;2024-02-21T05:12:41;100704.44;;;3.33;91.88
22662;BME280;11497;52.222;21.246;2024-02-21T05:15:09;100704.44;;;3.33;91.84
22662;BME280;11497;52.222;21.246;2024-02-21T05:17:37;100702.88;;;3.36;91.59
22662;BME280;11497;52.222;21.246;2024-02-21T05:20:06;100698.06;;;3.44;91.62
22662;BME280;11497;52.222;21.246;2024-02-21T05:22:35;100700.78;;;3.49;91.55
22662;BME280;11497;52.222;21.246;2024-02-21T05:25:03;100704.22;;;3.49;91.40
22662;BME280;11497;52.222;21.246;2024-02-21T05:27:31;100698.53;;;3.56;91.51
22662;BME280;11497;52.222;21.246;2024-02-21T05:29:59;100712.16;;;3.59;91.38
22662;BME280;11497;52.222;21.246;2024-02-21T05:32:27;100704.66;;;3.62;91.42
22662;BME280;11497;52.222;21.246;2024-02-21T05:34:56;100697.13;;;3.65;91.20
22662;BME280;11497;52.222;21.246;2024-02-21T05:37:25;100693.81;;;3.67;91.13
22662;BME280;11497;52.222;21.246;2024-02-21T05:39:54;100699.03;;;3.70;91.12
22662;BME280;11497;52.222;21.246;2024-02-21T05:42:22;100696.59;;;3.73;91.19
22662;BME280;11497;52.222;21.246;2024-02-21T05:44:50;100696.75;;;3.78;91.00
22662;BME280;11497;52.222;21.246;2024-02-21T05:47:18;100691.81;;;3.83;90.78
22662;BME280;11497;52.222;21.246;2024-02-21T05:49:48;100693.72;;;3.88;90.96
22662;BME280;11497;52.222;21.246;2024-02-21T05:52:16;100692.97;;;3.91;90.40
22662;BME280;11497;52.222;21.246;2024-02-21T05:54:44;100699.81;;;3.92;90.40
22662;BME280;11497;52.222;21.246;2024-02-21T05:57:12;100698.97;;;3.93;90.32
22662;BME280;11497;52.222;21.246;2024-02-21T05:59:40;100693.88;;;3.93;90.49
22662;BME280;11497;52.222;21.246;2024-02-21T06:02:09;100693.03;;;3.92;90.25
22662;BME280;11497;52.222;21.246;2024-02-21T06:04:38;100689.66;;;3.93;90.66
22662;BME280;11497;52.222;21.246;2024-02-21T06:07:07;100692.25;;;3.95;90.30
22662;BME280;11497;52.222;21.246;2024-02-21T06:09:36;100697.50;;;4.00;90.51
22662;BME280;11497;52.222;21.246;2024-02-21T06:12:04;100693.50;;;4.06;90.11
22662;BME280;11497;52.222;21.246;2024-02-21T06:14:32;100691.94;;;4.10;90.06
22662;BME280;11497;52.222;21.246;2024-02-21T06:17:00;100684.50;;;4.16;89.95
22662;BME280;11497;52.222;21.246;2024-02-21T06:19:28;100684.44;;;4.15;89.94
22662;BME280;11497;52.222;21.246;2024-02-21T06:21:56;100676.19;;;4.22;89.56
22662;BME280;11497;52.222;21.246;2024-02-21T06:24:24;100677.22;;;4.27;89.27
22662;BME280;11497;52.222;21.246;2024-02-21T06:26:52;100685.88;;;4.32;89.50
22662;BME280;11497;52.222;21.246;2024-02-21T06:29:20;100690.38;;;4.39;89.51
22662;BME280;11497;52.222;21.246;2024-02-21T06:31:47;100692.25;;;4.45;89.01
22662;BME280;11497;52.222;21.246;2024-02-21T06:34:15;100690.00;;;4.54;88.92
22662;BME280;11497;52.222;21.246;2024-02-21T06:36:45;100680.03;;;4.62;88.71
22662;BME280;11497;52.222;21.246;2024-02-21T06:39:13;100680.38;;;4.71;88.51
22662;BME280;11497;52.222;21.246;2024-02-21T06:41:41;100685.69;;;4.79;88.42
22662;BME280;11497;52.222;21.246;2024-02-21T06:44:10;100685.97;;;4.88;87.71
22662;BME280;11497;52.222;21.246;2024-02-21T06:46:37;100680.34;;;4.98;87.52
22662;BME280;11497;52.222;21.246;2024-02-21T06:49:06;100682.53;;;5.15;87.48
22662;BME280;11497;52.222;21.246;2024-02-21T06:51:35;100684.56;;;5.25;87.04
22662;BME280;11497;52.222;21.246;2024-02-21T06:54:04;100679.72;;;5.34;86.75
22662;BME280;11497;52.222;21.246;2024-02-21T06:56:32;100687.47;;;5.37;86.67
22662;BME280;11497;52.222;21.246;2024-02-21T06:59:00;100688.50;;;5.44;86.59
22662;BME280;11497;52.222;21.246;2024-02-21T07:01:28;100687.16;;;5.55;86.16
22662;BME280;11497;52.222;21.246;2024-02-21T07:03:57;100682.41;;;5.69;85.90
22662;BME280;11497;52.222;21.246;2024-02-21T07:06:25;100687.63;;;5.74;85.14
22662;BME280;11497;52.222;21.246;2024-02-21T07:08:53;100680.16;;;5.80;85.20
22662;BME280;11497;52.222;21.246;2024-02-21T07:11:21;100686.13;;;5.80;84.97
22662;BME280;11497;52.222;21.246;2024-02-21T07:13:49;100685.31;;;5.81;84.96
22662;BME280;11497;52.222;21.246;2024-02-21T07:16:17;100683.44;;;5.76;84.18
22662;BME280;11497;52.222;21.246;2024-02-21T07:18:45;100672.41;;;5.77;84.25
22662;BME280;11497;52.222;21.246;2024-02-21T07:21:13;100678.38;;;5.77;83.72
22662;BME280;11497;52.222;21.246;2024-02-21T07:23:43;100677.66;;;5.81;83.67
22662;BME280;11497;52.222;21.246;2024-02-21T07:26:11;100678.31;;;5.76;83.98
22662;BME280;11497;52.222;21.246;2024-02-21T07:28:39;100681.88;;;5.81;84.03
22662;BME280;11497;52.222;21.246;2024-02-21T07:31:07;100679.31;;;5.79;83.85
22662;BME280;11497;52.222;21.246;2024-02-21T07:33:35;100680.13;;;5.78;84.02
22662;BME280;11497;52.222;21.246;2024-02-21T07:36:07;100675.09;;;5.81;83.87
22662;BME280;11497;52.222;21.246;2024-02-21T07:38:36;100674.38;;;5.87;83.32
22662;BME280;11497;52.222;21.246;2024-02-21T07:41:04;100682.94;;;5.89;83.93
22662;BME280;11497;52.222;21.246;2024-02-21T07:43:32;100673.69;;;5.93;83.71
22662;BME280;11497;52.222;21.246;2024-02-21T07:46:00;100664.25;;;5.90;83.93
22662;BME280;11497;52.222;21.246;2024-02-21T07:48:28;100661.03;;;5.96;83.48
22662;BME280;11497;52.222;21.246;2024-02-21T07:51:00;100662.28;;;6.10;82.88
22662;BME280;11497;52.222;21.246;2024-02-21T07:53:28;100658.88;;;6.11;83.46
22662;BME280;11497;52.222;21.246;2024-02-21T07:55:55;100660.84;;;6.22;83.34
22662;BME280;11497;52.222;21.246;2024-02-21T07:58:24;100661.84;;;6.28;83.27
22662;BME280;11497;52.222;21.246;2024-02-21T08:00:51;100654.38;;;6.36;82.00
22662;BME280;11497;52.222;21.246;2024-02-21T08:03:20;100654.31;;;6.33;82.45
22662;BME280;11497;52.222;21.246;2024-02-21T08:05:48;100649.19;;;6.33;82.16
22662;BME280;11497;52.222;21.246;2024-02-21T08:08:16;100651.03;;;6.38;82.37
22662;BME280;11497;52.222;21.246;2024-02-21T08:10:47;100641.94;;;6.50;81.60
22662;BME280;11497;52.222;21.246;2024-02-21T08:13:15;100644.03;;;6.66;81.50
22662;BME280;11497;52.222;21.246;2024-02-21T08:15:43;100646.69;;;6.71;80.89
22662;BME280;11497;52.222;21.246;2024-02-21T08:18:11;100645.31;;;6.85;80.61
22662;BME280;11497;52.222;21.246;2024-02-21T08:20:39;100636.00;;;6.89;80.43
22662;BME280;11497;52.222;21.246;2024-02-21T08:23:08;100631.75;;;6.89;80.14
22662;BME280;11497;52.222;21.246;2024-02-21T08:25:36;100620.94;;;7.03;79.66
22662;BME280;11497;52.222;21.246;2024-02-21T08:28:05;100613.59;;;7.18;79.50
22662;BME280;11497;52.222;21.246;2024-02-21T08:30:35;100615.19;;;7.56;78.62
22662;BME280;11497;52.222;21.246;2024-02-21T08:33:03;100612.59;;;8.00;77.80
22662;BME280;11497;52.222;21.246;2024-02-21T08:35:31;100608.47;;;8.60;76.46
22662;BME280;11497;52.222;21.246;2024-02-21T08:37:59;100606.53;;;9.05;74.68
22662;BME280;11497;52.222;21.246;2024-02-21T08:40:27;100598.34;;;9.38;72.85
22662;BME280;11497;52.222;21.246;2024-02-21T08:42:55;100603.16;;;9.88;71.39
22662;BME280;11497;52.222;21.246;2024-02-21T08:45:23;100607.56;;;10.00;69.75
22662;BME280;11497;52.222;21.246;2024-02-21T08:47:51;100594.91;;;10.23;68.74
22662;BME280;11497;52.222;21.246;2024-02-21T08:50:19;100592.59;;;10.57;67.13
22662;BME280;11497;52.222;21.246;2024-02-21T08:52:56;100597.88;;;10.74;65.35
22662;BME280;11497;52.222;21.246;2024-02-21T08:55:24;100588.38;;;10.67;65.89
22662;BME280;11497;52.222;21.246;2024-02-21T08:57:53;100593.41;;;10.50;65.80
22662;BME280;11497;52.222;21.246;2024-02-21T09:00:21;100592.25;;;10.11;66.35
22662;BME280;11497;52.222;21.246;2024-02-21T09:02:55;100586.94;;;9.92;66.02
22662;BME280;11497;52.222;21.246;2024-02-21T09:05:24;100595.22;;;9.64;66.78
22662;BME280;11497;52.222;21.246;2024-02-21T09:07:53;100586.38;;;9.40;68.18
22662;BME280;11497;52.222;21.246;2024-02-21T09:10:21;100588.00;;;9.29;68.40
22662;BME280;11497;52.222;21.246;2024-02-21T09:12:50;100582.72;;;9.16;68.73
22662;BME280;11497;52.222;21.246;2024-02-21T09:15:18;100585.88;;;8.98;69.10
22662;BME280;11497;52.222;21.246;2024-02-21T09:17:46;100589.09;;;8.83;69.74
22662;BME280;11497;52.222;21.246;2024-02-21T09:20:14;100582.25;;;8.81;70.19
22662;BME280;11497;52.222;21.246;2024-02-21T09:22:44;100587.25;;;8.72;71.10
22662;BME280;11497;52.222;21.246;2024-02-21T09:25:13;100582.06;;;8.67;71.30
22662;BME280;11497;52.222;21.246;2024-02-21T09:27:41;100584.72;;;8.73;71.12
22662;BME280;11497;52.222;21.246;2024-02-21T09:30:09;100583.22;;;8.89;70.95
22662;BME280;11497;52.222;21.246;2024-02-21T09:32:38;100583.59;;;9.18;69.42
22662;BME280;11497;52.222;21.246;2024-02-21T09:35:06;100581.00;;;9.17;69.51
22662;BME280;11497;52.222;21.246;2024-02-21T09:37:35;100579.38;;;9.24;69.04
22662;BME280;11497;52.222;21.246;2024-02-21T09:40:02;100581.72;;;9.07;69.15
22662;BME280;11497;52.222;21.246;2024-02-21T09:42:41;100581.41;;;8.83;69.68
22662;BME280;11497;52.222;21.246;2024-02-21T09:50:20;100580.56;;;8.28;71.61
22662;BME280;11497;52.222;21.246;2024-02-21T09:52:50;100575.16;;;8.11;72.37
22662;BME280;11497;52.222;21.246;2024-02-21T09:55:19;100580.91;;;7.96;73.08
22662;BME280;11497;52.222;21.246;2024-02-21T09:57:49;100576.66;;;7.97;73.66
22662;BME280;11497;52.222;21.246;2024-02-21T10:00:17;100573.03;;;7.84;74.15
22662;BME280;11497;52.222;21.246;2024-02-21T10:02:49;100575.47;;;7.78;74.32
22662;BME280;11497;52.222;21.246;2024-02-21T10:05:18;100571.13;;;7.74;74.88
22662;BME280;11497;52.222;21.246;2024-02-21T10:07:47;100573.69;;;7.75;74.89
22662;BME280;11497;52.222;21.246;2024-02-21T10:10:16;100574.38;;;7.65;75.11
22662;BME280;11497;52.222;21.246;2024-02-21T10:12:51;100569.38;;;7.71;75.52
22662;BME280;11497;52.222;21.246;2024-02-21T10:15:23;100556.81;;;7.86;75.37
22662;BME280;11497;52.222;21.246;2024-02-21T10:18:02;100558.81;;;8.03;75.26
22662;BME280;11497;52.222;21.246;2024-02-21T10:20:31;100549.56;;;8.14;74.93
22662;BME280;11497;52.222;21.246;2024-02-21T10:23:04;100550.44;;;8.13;74.44
22662;BME280;11497;52.222;21.246;2024-02-21T10:25:36;100537.63;;;8.16;74.70
22662;BME280;11497;52.222;21.246;2024-02-21T10:28:13;100534.44;;;8.30;74.26
22662;BME280;11497;52.222;21.246;2024-02-21T10:30:50;100534.56;;;8.37;74.40
22662;BME280;11497;52.222;21.246;2024-02-21T10:33:19;100535.53;;;8.42;74.07
22662;BME280;11497;52.222;21.246;2024-02-21T10:35:52;100532.09;;;8.43;73.79
22662;BME280;11497;52.222;21.246;2024-02-21T10:38:20;100534.66;;;8.43;73.90
22662;BME280;11497;52.222;21.246;2024-02-21T10:40:48;100535.63;;;8.50;73.46
22662;BME280;11497;52.222;21.246;2024-02-21T10:43:17;100522.91;;;8.59;73.01
22662;BME280;11497;52.222;21.246;2024-02-21T10:45:48;100535.81;;;8.66;72.92
22662;BME280;11497;52.222;21.246;2024-02-21T10:48:24;100520.38;;;8.62;72.36
22662;BME280;11497;52.222;21.246;2024-02-21T10:50:57;100517.75;;;8.56;72.23
22662;BME280;11497;52.222;21.246;2024-02-21T10:56:26;100511.72;;;8.54;72.23
22662;BME280;11497;52.222;21.246;2024-02-21T10:59:01;100506.91;;;8.79;71.45
22662;BME280;11497;52.222;21.246;2024-02-21T11:01:30;100509.56;;;8.87;71.04
22662;BME280;11497;52.222;21.246;2024-02-21T11:04:02;100504.41;;;8.82;71.50
22662;BME280;11497;52.222;21.246;2024-02-21T11:06:32;100496.88;;;8.96;71.29
22662;BME280;11497;52.222;21.246;2024-02-21T11:09:09;100492.50;;;8.92;71.23
22662;BME280;11497;52.222;21.246;2024-02-21T11:11:40;100495.03;;;8.89;71.31
22662;BME280;11497;52.222;21.246;2024-02-21T11:16:44;100481.75;;;8.50;72.63
22662;BME280;11497;52.222;21.246;2024-02-21T11:19:22;100482.53;;;8.44;73.29
22662;BME280;11497;52.222;21.246;2024-02-21T11:21:52;100475.56;;;8.40;74.21
22662;BME280;11497;52.222;21.246;2024-02-21T11:27:15;100467.34;;;8.60;74.76
22662;BME280;11497;52.222;21.246;2024-02-21T11:29:48;100468.13;;;8.57;74.34
22662;BME280;11497;52.222;21.246;2024-02-21T11:32:20;100464.81;;;8.64;74.47
22662;BME280;11497;52.222;21.246;2024-02-21T11:34:58;100467.25;;;8.54;74.73
22662;BME280;11497;52.222;21.246;2024-02-21T11:37:32;100453.41;;;8.44;75.46
22662;BME280;11497;52.222;21.246;2024-02-21T11:40:05;100459.41;;;8.43;75.79
22662;BME280;11497;52.222;21.246;2024-02-21T11:42:38;100459.25;;;8.34;75.86
22662;BME280;11497;52.222;21.246;2024-02-21T11:45:07;100462.53;;;8.25;75.96
22662;BME280;11497;52.222;21.246;2024-02-21T11:47:37;100459.97;;;8.25;76.28
22662;BME280;11497;52.222;21.246;2024-02-21T11:50:12;100460.13;;;8.34;76.91
22662;BME280;11497;52.222;21.246;2024-02-21T11:52:43;100456.66;;;8.31;77.23
22662;BME280;11497;52.222;21.246;2024-02-21T11:55:11;100457.44;;;8.26;76.97
22662;BME280;11497;52.222;21.246;2024-02-21T11:57:39;100463.19;;;8.10;78.05
22662;BME280;11497;52.222;21.246;2024-02-21T12:00:19;100458.81;;;8.01;78.45
22662;BME280;11497;52.222;21.246;2024-02-21T12:02:51;100457.81;;;7.93;78.67
22662;BME280;11497;52.222;21.246;2024-02-21T12:05:20;100445.06;;;7.96;79.37
22662;BME280;11497;52.222;21.246;2024-02-21T12:07:48;100443.38;;;7.98;79.91
22662;BME280;11497;52.222;21.246;2024-02-21T12:10:16;100435.72;;;8.00;79.32
22662;BME280;11497;52.222;21.246;2024-02-21T12:12:44;100437.38;;;7.96;79.15
22662;BME280;11497;52.222;21.246;2024-02-21T12:15:13;100448.38;;;7.92;80.00
22662;BME280;11497;52.222;21.246;2024-02-21T12:17:40;100445.75;;;7.86;80.30
22662;BME280;11497;52.222;21.246;2024-02-21T12:20:10;100438.81;;;7.80;80.55
22662;BME280;11497;52.222;21.246;2024-02-21T12:22:43;100436.09;;;7.69;81.20
22662;BME280;11497;52.222;21.246;2024-02-21T12:25:22;100423.19;;;7.65;81.40
22662;BME280;11497;52.222;21.246;2024-02-21T12:27:51;100426.63;;;7.64;81.35
22662;BME280;11497;52.222;21.246;2024-02-21T12:30:19;100425.84;;;7.69;81.84
22662;BME280;11497;52.222;21.246;2024-02-21T12:32:47;100419.78;;;7.64;81.93
22662;BME280;11497;52.222;21.246;2024-02-21T12:35:16;100423.09;;;7.57;82.13
22662;BME280;11497;52.222;21.246;2024-02-21T12:37:45;100418.75;;;7.55;82.29
22662;BME280;11497;52.222;21.246;2024-02-21T12:40:14;100412.78;;;7.54;82.85
22662;BME280;11497;52.222;21.246;2024-02-21T12:42:43;100408.50;;;7.51;82.42
22662;BME280;11497;52.222;21.246;2024-02-21T12:45:13;100410.91;;;7.44;83.04
22662;BME280;11497;52.222;21.246;2024-02-21T12:47:43;100406.66;;;7.44;83.07
22662;BME280;11497;52.222;21.246;2024-02-21T12:50:11;100401.53;;;7.43;83.10
22662;BME280;11497;52.222;21.246;2024-02-21T12:52:39;100401.47;;;7.40;82.90
22662;BME280;11497;52.222;21.246;2024-02-21T12:55:08;100398.81;;;7.35;83.40
22662;BME280;11497;52.222;21.246;2024-02-21T12:57:38;100400.41;;;7.28;84.05
22662;BME280;11497;52.222;21.246;2024-02-21T13:00:08;100389.34;;;7.29;83.77
22662;BME280;11497;52.222;21.246;2024-02-21T13:02:37;100397.81;;;7.27;84.09
22662;BME280;11497;52.222;21.246;2024-02-21T13:05:09;100391.06;;;7.32;84.50
22662;BME280;11497;52.222;21.246;2024-02-21T13:07:37;100396.97;;;7.26;84.58
22662;BME280;11497;52.222;21.246;2024-02-21T13:10:06;100388.53;;;7.33;84.56
22662;BME280;11497;52.222;21.246;2024-02-21T13:12:34;100384.31;;;7.36;84.29